Time;durP1;ratioP1;P1;durP2;ratioP2;P2;SDS_P1;SDS_P2;PMS_P1;PMS_P2;Temp;Humidity;BMP_temperature;BMP_pressure;BME280_temperature;BME280_humidity;BME280_pressure;Samples;Min_cycle;Max_cycle;Signal;HPM_P1;HPM_P2
2024/02/22 00:01:51;;;;;;;0.40;0.40;;;;;;;5.14;100.00;98861.34;5047706;28;20029;-65
2024/02/22 00:04:16;;;;;;;0.50;0.50;;;;;;;5.09;100.00;98850.25;5055736;23;20052;-72
2024/02/22 00:06:42;;;;;;;0.45;0.45;;;;;;;5.10;100.00;98826.22;5058538;23;20052;-65
2024/02/22 00:09:07;;;;;;;0.52;0.52;;;;;;;5.14;100.00;98835.63;5047557;28;20044;-65
2024/02/22 00:11:33;;;;;;;0.40;0.40;;;;;;;5.13;100.00;98823.63;5029619;28;20040;-65
2024/02/22 00:13:58;;;;;;;0.40;0.40;;;;;;;5.29;100.00;98828.56;5047720;28;20531;-65
2024/02/22 00:16:23;;;;;;;0.50;0.50;;;;;;;5.25;100.00;98822.63;5029769;28;20025;-65
2024/02/22 00:18:49;;;;;;;0.95;0.95;;;;;;;5.36;100.00;98813.91;5047649;28;20029;-65
2024/02/22 00:21:14;;;;;;;1.77;1.67;;;;;;;5.57;100.00;98795.59;5066648;23;20056;-69
2024/02/22 00:23:40;;;;;;;0.60;0.60;;;;;;;5.54;100.00;98794.81;5049603;28;20025;-70
2024/02/22 00:26:05;;;;;;;0.70;0.70;;;;;;;5.53;100.00;98795.66;5067306;28;20031;-69
2024/02/22 00:28:31;;;;;;;0.45;0.45;;;;;;;5.54;100.00;98789.66;5067278;28;20021;-71
2024/02/22 00:30:56;;;;;;;0.63;0.63;;;;;;;5.46;100.00;98782.88;5048734;28;20025;-70
2024/02/22 00:33:22;;;;;;;0.52;0.52;;;;;;;5.54;100.00;98776.78;5067016;28;20025;-70
2024/02/22 00:35:47;;;;;;;0.50;0.50;;;;;;;5.58;100.00;98758.69;5067019;28;20052;-70
2024/02/22 00:38:13;;;;;;;0.50;0.50;;;;;;;5.58;100.00;98752.69;5067131;28;20021;-70
2024/02/22 00:40:38;;;;;;;0.98;0.98;;;;;;;5.57;100.00;98749.25;5066852;28;20024;-69
2024/02/22 00:43:03;;;;;;;1.52;1.42;;;;;;;5.76;100.00;98745.56;5067297;28;20024;-69
2024/02/22 00:45:29;;;;;;;0.73;0.73;;;;;;;5.69;100.00;98734.50;5048896;28;20035;-69
2024/02/22 00:47:58;;;;;;;0.55;0.55;;;;;;;5.64;100.00;98737.16;5066887;28;20028;-70
2024/02/22 00:50:24;;;;;;;0.50;0.50;;;;;;;5.58;100.00;98722.66;5066988;28;20025;-71
2024/02/22 00:52:50;;;;;;;1.98;1.88;;;;;;;5.49;100.00;98722.81;5052183;23;20049;-63
2024/02/22 00:55:16;;;;;;;1.27;1.27;;;;;;;5.69;100.00;98709.63;5052288;23;20075;-71
2024/02/22 00:57:41;;;;;;;0.82;0.82;;;;;;;5.65;100.00;98707.13;5046833;28;20037;-70
2024/02/22 01:00:11;;;;;;;0.50;0.50;;;;;;;5.59;100.00;98700.34;5046709;28;20030;-70
2024/02/22 01:02:37;;;;;;;0.45;0.45;;;;;;;5.67;100.00;98695.06;5028747;28;20311;-70
2024/02/22 01:05:02;;;;;;;8.07;1.70;;;;;;;5.68;100.00;98689.03;5029022;28;20022;-70
2024/02/22 01:07:28;;;;;;;0.60;0.60;;;;;;;5.73;100.00;98671.81;5028465;28;20274;-69
2024/02/22 01:09:53;;;;;;;0.70;0.70;;;;;;;5.64;100.00;98675.34;5051829;23;20384;-63
2024/02/22 01:12:18;;;;;;;0.95;0.95;;;;;;;5.87;100.00;98676.72;5028994;28;20025;-64
2024/02/22 01:14:44;;;;;;;0.82;0.82;;;;;;;5.97;100.00;98679.97;5046424;28;20488;-63
2024/02/22 01:17:09;;;;;;;0.60;0.60;;;;;;;5.83;100.00;98665.59;5028837;28;20033;-64
2024/02/22 01:19:35;;;;;;;0.40;0.40;;;;;;;5.66;100.00;98663.31;5046093;28;20030;-63
2024/02/22 01:22:02;;;;;;;0.40;0.40;;;;;;;5.74;100.00;98652.03;5046664;28;20017;-62
2024/02/22 01:24:27;;;;;;;0.50;0.50;;;;;;;5.79;100.00;98637.34;5044099;23;20049;-68
2024/02/22 01:26:53;;;;;;;0.47;0.47;;;;;;;5.81;100.00;98630.47;5065624;28;20151;-68
2024/02/22 01:29:18;;;;;;;1.02;1.02;;;;;;;5.70;100.00;98622.94;5064860;28;20029;-68
2024/02/22 01:31:44;;;;;;;0.52;0.52;;;;;;;5.82;100.00;98614.97;5068497;23;20049;-65
2024/02/22 01:34:10;;;;;;;0.40;0.40;;;;;;;5.67;100.00;98621.25;5053797;23;20045;-63
2024/02/22 01:36:35;;;;;;;0.40;0.40;;;;;;;5.79;100.00;98609.03;5065179;23;20079;-64
2024/02/22 01:39:03;;;;;;;0.50;0.50;;;;;;;6.00;100.00;98596.63;5058144;23;20081;-64
2024/02/22 01:41:29;;;;;;;0.40;0.40;;;;;;;5.83;100.00;98600.41;5051341;23;20033;-68
2024/02/22 01:43:54;;;;;;;0.95;0.95;;;;;;;5.80;100.00;98600.41;5065371;28;20461;-69
2024/02/22 01:46:20;;;;;;;0.98;0.93;;;;;;;5.80;100.00;98590.13;5048165;28;20035;-69
2024/02/22 01:48:46;;;;;;;0.55;0.55;;;;;;;5.79;100.00;98575.56;5066041;28;20029;-68
2024/02/22 01:51:12;;;;;;;0.50;0.50;;;;;;;5.93;100.00;98576.16;5047838;28;20040;-69
2024/02/22 01:53:38;;;;;;;0.50;0.50;;;;;;;5.78;100.00;98568.72;5065724;28;20367;-69
2024/02/22 01:56:05;;;;;;;0.50;0.50;;;;;;;5.75;100.00;98568.78;5070914;23;20078;-64
2024/02/22 01:58:36;;;;;;;0.60;0.60;;;;;;;5.65;100.00;98565.50;5047639;28;20032;-63
2024/02/22 02:01:03;;;;;;;1.50;1.40;;;;;;;5.68;100.00;98561.16;5065962;28;20098;-64
2024/02/22 02:03:29;;;;;;;0.60;0.60;;;;;;;5.65;100.00;98568.09;5047562;28;20021;-64
2024/02/22 02:05:59;;;;;;;0.40;0.40;;;;;;;5.61;100.00;98556.97;5047897;28;20051;-63
2024/02/22 02:08:24;;;;;;;0.60;0.60;;;;;;;5.70;100.00;98563.72;5065802;28;20024;-64
2024/02/22 02:10:50;;;;;;;0.88;0.88;;;;;;;5.81;100.00;98550.63;5078434;23;20053;-64
2024/02/22 02:13:16;;;;;;;0.40;0.40;;;;;;;5.85;100.00;98549.69;5071636;23;20059;-69
2024/02/22 02:15:41;;;;;;;0.50;0.50;;;;;;;5.79;100.00;98554.94;5065068;28;20072;-69
2024/02/22 02:18:07;;;;;;;0.40;0.40;;;;;;;5.79;100.00;98537.78;5074045;23;20032;-66
2024/02/22 02:20:47;;;;;;;0.60;0.60;;;;;;;5.80;100.00;98531.75;5070563;23;20116;-69
2024/02/22 02:23:38;;;;;;;0.65;0.65;;;;;;;5.81;100.00;98536.00;5065317;28;20035;-68
2024/02/22 02:26:05;;;;;;;0.40;0.40;;;;;;;5.67;100.00;98531.13;5065237;28;20025;-68
2024/02/22 02:28:30;;;;;;;0.50;0.50;;;;;;;5.73;100.00;98519.88;5065216;28;20021;-69
2024/02/22 02:30:55;;;;;;;1.20;1.20;;;;;;;5.76;100.00;98529.25;5066496;28;20024;-69
2024/02/22 02:33:21;;;;;;;0.68;0.68;;;;;;;5.71;100.00;98516.47;5067354;28;20127;-69
2024/02/22 02:35:46;;;;;;;0.40;0.40;;;;;;;5.65;100.00;98525.19;5065114;28;20032;-70
2024/02/22 02:38:13;;;;;;;0.40;0.40;;;;;;;5.76;100.00;98527.53;5065087;28;20052;-69
2024/02/22 02:40:39;;;;;;;0.50;0.50;;;;;;;5.74;100.00;98524.13;5064816;28;20033;-71
2024/02/22 02:43:05;;;;;;;0.40;0.40;;;;;;;5.73;100.00;98519.03;5043508;23;20079;-64
2024/02/22 02:45:30;;;;;;;1.55;1.48;;;;;;;5.72;100.00;98502.72;5066648;23;20053;-71
2024/02/22 02:47:56;;;;;;;0.93;0.93;;;;;;;5.74;100.00;98505.25;5065140;28;20028;-71
2024/02/22 02:50:21;;;;;;;0.70;0.70;;;;;;;5.75;100.00;98497.50;5064429;28;20092;-72
2024/02/22 02:52:47;;;;;;;0.40;0.40;;;;;;;5.63;100.00;98490.88;5064500;28;20017;-72
2024/02/22 02:55:13;;;;;;;0.50;0.50;;;;;;;5.67;100.00;98489.94;5057283;23;20504;-63
2024/02/22 02:57:40;;;;;;;0.80;0.80;;;;;;;5.72;100.00;98489.00;5046923;28;20032;-63
2024/02/22 03:00:11;;;;;;;3.60;3.35;;;;;;;5.66;100.00;98493.41;5065299;23;20056;-63
2024/02/22 03:02:37;;;;;;;0.50;0.50;;;;;;;5.69;100.00;98483.03;5044617;28;20106;-63
2024/02/22 03:05:03;;;;;;;0.50;0.50;;;;;;;5.68;100.00;98475.34;5044644;28;20030;-63
2024/02/22 03:07:28;;;;;;;0.60;0.60;;;;;;;5.68;100.00;98476.19;5044753;28;20117;-63
2024/02/22 03:09:54;;;;;;;0.60;0.60;;;;;;;5.75;100.00;98470.94;5044798;28;20057;-64
2024/02/22 03:12:19;;;;;;;0.70;0.70;;;;;;;5.69;100.00;98470.16;5043370;28;20032;-63
2024/02/22 03:14:45;;;;;;;0.50;0.50;;;;;;;5.68;100.00;98473.63;5069822;23;20152;-66
2024/02/22 03:17:10;;;;;;;5.90;2.53;;;;;;;5.58;100.00;98464.38;5028261;23;20051;-74
2024/02/22 03:19:35;;;;;;;1.73;1.63;;;;;;;5.61;100.00;98460.91;5004849;28;20037;-73
2024/02/22 03:22:01;;;;;;;0.50;0.50;;;;;;;5.72;100.00;98463.25;5005641;28;20034;-72
2024/02/22 03:24:26;;;;;;;0.60;0.60;;;;;;;5.66;100.00;98467.66;5005128;28;20450;-73
2024/02/22 03:26:54;;;;;;;0.70;0.70;;;;;;;5.70;100.00;98469.28;5029439;23;20053;-71
2024/02/22 03:29:21;;;;;;;1.40;1.30;;;;;;;5.61;100.00;98454.00;5022171;28;20098;-72
2024/02/22 03:31:46;;;;;;;0.40;0.40;;;;;;;5.42;100.00;98426.06;5052558;23;20061;-64
2024/02/22 03:34:12;;;;;;;1.80;1.70;;;;;;;5.58;100.00;98444.63;5077572;23;20057;-64
2024/02/22 03:36:41;;;;;;;0.50;0.50;;;;;;;5.59;100.00;98450.63;5094166;23;20063;-72
2024/02/22 03:39:07;;;;;;;0.40;0.40;;;;;;;5.58;100.00;98448.91;5046382;28;20032;-73
2024/02/22 03:41:34;;;;;;;0.63;0.63;;;;;;;5.55;100.00;98433.53;5064303;28;20043;-73
2024/02/22 03:43:59;;;;;;;0.60;0.60;;;;;;;5.42;100.00;98427.78;5046260;28;20102;-73
2024/02/22 03:46:25;;;;;;;0.93;0.93;;;;;;;5.52;100.00;98433.59;5045297;28;20041;-73
2024/02/22 03:48:50;;;;;;;1.65;1.55;;;;;;;5.57;100.00;98449.81;5064138;28;20027;-73
2024/02/22 03:51:16;;;;;;;0.80;0.80;;;;;;;5.64;100.00;98430.78;5064097;28;20021;-73
2024/02/22 03:53:41;;;;;;;0.40;0.40;;;;;;;5.61;100.00;98432.59;5046188;28;20044;-73
2024/02/22 03:56:06;;;;;;;0.40;0.40;;;;;;;5.54;100.00;98422.38;5064069;28;20052;-74
2024/02/22 03:58:32;;;;;;;0.40;0.40;;;;;;;5.59;100.00;98424.91;5063977;28;20025;-73
2024/02/22 04:00:57;;;;;;;0.40;0.40;;;;;;;5.53;100.00;98412.13;5045961;28;20029;-73
2024/02/22 04:03:23;;;;;;;0.50;0.50;;;;;;;5.53;100.00;98409.53;5101110;22;20064;-67
2024/02/22 04:05:48;;;;;;;0.50;0.50;;;;;;;5.45;100.00;98402.84;5065390;28;20107;-66
2024/02/22 04:10:55;;;;;;;0.50;0.50;;;;;;;5.48;100.00;98395.94;5066251;23;20061;-69
2024/02/22 04:13:20;;;;;;;0.50;0.50;;;;;;;5.36;100.00;98391.88;5045808;28;20025;-68
2024/02/22 04:15:47;;;;;;;0.50;0.50;;;;;;;5.43;100.00;98398.63;5047435;28;20051;-69
2024/02/22 04:18:13;;;;;;;0.50;0.50;;;;;;;5.53;100.00;98394.09;5046202;28;20221;-68
2024/02/22 04:23:29;;;;;;;0.80;0.80;;;;;;;5.41;100.00;98380.63;5028080;28;20073;-67
2024/02/22 04:25:57;;;;;;;0.50;0.50;;;;;;;5.37;100.00;98383.28;5027447;28;20030;-67
2024/02/22 04:28:24;;;;;;;0.40;0.40;;;;;;;5.40;100.00;98385.81;5010008;28;20037;-67
2024/02/22 04:30:49;;;;;;;0.45;0.45;;;;;;;5.41;100.00;98365.19;5027631;28;20056;-68
2024/02/22 04:33:14;;;;;;;0.40;0.40;;;;;;;5.49;100.00;98372.75;5045191;23;20049;-68
2024/02/22 04:35:42;;;;;;;0.40;0.40;;;;;;;5.43;100.00;98368.56;5054219;23;20045;-67
2024/02/22 04:38:08;;;;;;;0.40;0.40;;;;;;;5.45;100.00;98358.22;5029765;28;20029;-67
2024/02/22 04:40:34;;;;;;;0.50;0.50;;;;;;;5.46;100.00;98353.06;5047290;28;20025;-67
2024/02/22 04:42:59;;;;;;;0.60;0.60;;;;;;;5.53;100.00;98352.91;5059718;23;20375;-69
2024/02/22 04:45:25;;;;;;;0.40;0.40;;;;;;;5.50;100.00;98345.25;5066960;28;20024;-69
2024/02/22 04:47:50;;;;;;;0.50;0.50;;;;;;;5.54;100.00;98354.63;5048836;28;20092;-68
2024/02/22 04:50:16;;;;;;;2.55;2.45;;;;;;;5.51;100.00;98355.53;5066021;28;20020;-68
2024/02/22 04:52:42;;;;;;;0.90;0.90;;;;;;;5.44;100.00;98344.53;5065181;28;20028;-69
2024/02/22 04:55:08;;;;;;;0.50;0.50;;;;;;;5.67;100.00;98353.47;5074209;23;20057;-68
2024/02/22 04:57:34;;;;;;;0.40;0.40;;;;;;;5.61;100.00;98357.94;5062290;23;20053;-67
2024/02/22 04:59:59;;;;;;;0.40;0.40;;;;;;;5.42;100.00;98342.84;5046632;28;20117;-66
2024/02/22 05:02:24;;;;;;;0.50;0.50;;;;;;;5.36;100.00;98346.41;5045546;28;20026;-66
2024/02/22 05:04:50;;;;;;;0.60;0.60;;;;;;;5.45;100.00;98342.78;5056778;23;20050;-69
2024/02/22 05:07:15;;;;;;;0.52;0.52;;;;;;;5.50;100.00;98322.97;5046865;28;20057;-70
2024/02/22 05:09:44;;;;;;;0.60;0.60;;;;;;;5.49;100.00;98343.59;5046384;28;20047;-73
2024/02/22 05:12:09;;;;;;;0.50;0.50;;;;;;;5.46;100.00;98340.19;5046405;28;20108;-69
2024/02/22 05:14:35;;;;;;;0.50;0.50;;;;;;;5.45;100.00;98340.22;5028540;28;20033;-69
2024/02/22 05:17:00;;;;;;;0.50;0.50;;;;;;;5.43;100.00;98329.13;5028321;28;20036;-69
2024/02/22 05:21:53;;;;;;;0.63;0.63;;;;;;;5.45;100.00;98324.78;5067307;23;20067;-66
2024/02/22 05:24:18;;;;;;;0.45;0.45;;;;;;;5.43;100.00;98337.69;5067899;23;20050;-68
2024/02/22 05:26:44;;;;;;;0.47;0.47;;;;;;;5.40;100.00;98324.88;5044751;28;20025;-68
2024/02/22 05:29:09;;;;;;;1.35;1.35;;;;;;;5.32;100.00;98317.31;5045614;28;20029;-69
2024/02/22 05:31:35;;;;;;;0.50;0.50;;;;;;;5.34;100.00;98319.84;5054576;23;20054;-66
2024/02/22 05:34:00;;;;;;;0.80;0.80;;;;;;;5.35;100.00;98313.00;5071755;23;20060;-66
2024/02/22 05:36:26;;;;;;;0.40;0.40;;;;;;;5.30;100.00;98311.34;5066110;23;20425;-66
2024/02/22 05:38:51;;;;;;;0.40;0.40;;;;;;;5.32;100.00;98307.03;5047044;23;20042;-67
2024/02/22 05:41:17;;;;;;;0.70;0.70;;;;;;;5.37;100.00;98301.78;5044840;28;20018;-69
2024/02/22 05:43:42;;;;;;;0.65;0.65;;;;;;;5.27;100.00;98313.97;5044904;28;20044;-68
2024/02/22 05:46:08;;;;;;;1.33;1.30;;;;;;;5.30;100.00;98302.81;5044537;28;20021;-69
2024/02/22 05:48:33;;;;;;;0.65;0.65;;;;;;;5.15;100.00;98291.09;5044305;28;20457;-68
2024/02/22 05:50:59;;;;;;;0.50;0.50;;;;;;;5.27;100.00;98301.13;5045098;28;20079;-68
2024/02/22 05:53:24;;;;;;;0.65;0.65;;;;;;;5.30;100.00;98295.09;5074840;23;20049;-65
2024/02/22 05:55:50;;;;;;;0.50;0.50;;;;;;;5.23;100.00;98280.63;5055731;23;20750;-70
2024/02/22 05:58:18;;;;;;;0.93;0.93;;;;;;;5.44;100.00;98297.34;5065857;28;20025;-70
2024/02/22 06:00:44;;;;;;;0.47;0.47;;;;;;;5.29;100.00;98272.78;5047259;28;20032;-69
2024/02/22 06:03:10;;;;;;;0.50;0.50;;;;;;;5.26;100.00;98288.28;5065403;28;20025;-68
2024/02/22 06:05:37;;;;;;;1.48;1.38;;;;;;;5.29;100.00;98275.34;5047382;28;20433;-67
2024/02/22 06:08:03;;;;;;;0.60;0.60;;;;;;;5.38;100.00;98285.47;5047275;28;20082;-68
2024/02/22 06:10:28;;;;;;;0.47;0.47;;;;;;;5.33;100.00;98275.28;5047127;28;20143;-68
2024/02/22 06:12:54;;;;;;;1.60;1.50;;;;;;;5.31;100.00;98278.75;5065549;28;20025;-68
2024/02/22 06:15:19;;;;;;;1.23;1.13;;;;;;;5.32;100.00;98273.56;5047743;28;20033;-68
2024/02/22 06:17:45;;;;;;;0.70;0.70;;;;;;;5.36;100.00;98273.50;5066053;28;20021;-69
2024/02/22 06:20:10;;;;;;;0.75;0.75;;;;;;;5.32;100.00;98268.44;5046676;28;20029;-69
2024/02/22 06:22:35;;;;;;;0.50;0.50;;;;;;;5.38;100.00;98272.63;5066961;28;20021;-68
2024/02/22 06:25:01;;;;;;;0.50;0.50;;;;;;;5.37;100.00;98270.06;5067435;28;20033;-70
2024/02/22 06:27:26;;;;;;;0.60;0.60;;;;;;;5.41;100.00;98280.25;5065467;28;20052;-71
2024/02/22 06:29:52;;;;;;;1.27;1.17;;;;;;;5.49;100.00;98280.09;5066717;23;20049;-63
2024/02/22 06:32:17;;;;;;;0.47;0.47;;;;;;;5.32;100.00;98268.44;5045312;28;20060;-63
2024/02/22 06:34:43;;;;;;;0.60;0.60;;;;;;;5.33;100.00;98279.56;5045053;28;20025;-62
2024/02/22 06:37:09;;;;;;;0.68;0.68;;;;;;;5.33;100.00;98277.00;5045097;28;20377;-61
2024/02/22 06:39:34;;;;;;;0.60;0.60;;;;;;;5.25;100.00;98266.03;5068593;23;20352;-60
2024/02/22 06:41:59;;;;;;;0.57;0.57;;;;;;;5.23;100.00;98262.63;5044838;28;20060;-61
2024/02/22 06:44:25;;;;;;;0.40;0.40;;;;;;;5.18;100.00;98265.28;5070094;23;20060;-62
2024/02/22 06:46:52;;;;;;;0.55;0.55;;;;;;;5.22;100.00;98251.50;5044999;28;20480;-61
2024/02/22 06:49:18;;;;;;;0.50;0.50;;;;;;;5.21;100.00;98260.94;5045047;28;20017;-63
2024/02/22 06:51:43;;;;;;;0.43;0.43;;;;;;;5.13;100.00;98262.00;5044749;28;20093;-63
2024/02/22 06:54:09;;;;;;;0.40;0.40;;;;;;;4.94;100.00;98224.63;5052640;23;20079;-66
2024/02/22 06:56:35;;;;;;;0.50;0.50;;;;;;;5.13;100.00;98237.09;5047996;23;20038;-66
2024/02/22 06:59:00;;;;;;;0.50;0.50;;;;;;;5.07;100.00;98245.81;5054666;23;20044;-65
2024/02/22 07:01:25;;;;;;;0.80;0.80;;;;;;;5.06;100.00;98244.09;5053247;23;20493;-64
2024/02/22 07:03:51;;;;;;;0.40;0.40;;;;;;;4.94;100.00;98237.50;5045021;28;20024;-65
2024/02/22 07:06:16;;;;;;;0.55;0.55;;;;;;;5.17;100.00;98243.88;5044952;28;20036;-63
2024/02/22 07:08:41;;;;;;;7.32;2.67;;;;;;;5.13;100.00;98247.38;5043826;28;20327;-63
2024/02/22 07:11:11;;;;;;;0.40;0.40;;;;;;;5.25;100.00;98237.72;5050946;23;20579;-67
2024/02/22 07:13:36;;;;;;;1.38;1.38;;;;;;;5.10;100.00;98234.59;5044824;28;20014;-65
2024/02/22 07:16:03;;;;;;;0.55;0.55;;;;;;;5.11;100.00;98233.72;5043040;28;20052;-65
2024/02/22 07:18:28;;;;;;;0.50;0.50;;;;;;;5.03;100.00;98230.47;5044757;28;20021;-65
2024/02/22 07:20:57;;;;;;;0.40;0.40;;;;;;;4.94;100.00;98216.91;5044593;28;20026;-65
2024/02/22 07:23:22;;;;;;;0.50;0.50;;;;;;;5.15;100.00;98227.63;5043318;28;20021;-65
2024/02/22 07:25:47;;;;;;;0.40;0.40;;;;;;;5.18;100.00;98214.69;5044662;28;20022;-64
2024/02/22 07:28:14;;;;;;;1.73;1.63;;;;;;;5.30;100.00;98218.72;5053857;23;20057;-64
2024/02/22 07:30:39;;;;;;;2.85;2.65;;;;;;;5.17;100.00;98207.03;5056489;23;20033;-65
2024/02/22 07:33:05;;;;;;;4.55;3.08;;;;;;;5.10;100.00;98214.00;5070953;23;20053;-64
2024/02/22 07:35:30;;;;;;;1.27;1.20;;;;;;;5.06;100.00;98210.66;5046762;28;20044;-63
2024/02/22 07:37:56;;;;;;;2.83;2.03;;;;;;;5.22;100.00;98210.34;5065000;28;20487;-65
2024/02/22 07:40:21;;;;;;;2.97;2.78;;;;;;;5.23;100.00;98206.03;5049327;28;20021;-64
2024/02/22 07:42:46;;;;;;;1.90;1.80;;;;;;;5.25;100.00;98186.25;5056191;23;20059;-69
2024/02/22 07:45:12;;;;;;;7.28;1.35;;;;;;;5.04;100.00;98198.72;5068481;28;20080;-69
2024/02/22 07:47:37;;;;;;;1.52;1.42;;;;;;;5.24;100.00;98192.31;5068335;28;20271;-70
2024/02/22 07:50:04;;;;;;;0.40;0.40;;;;;;;5.10;100.00;98190.03;5050039;28;20032;-70
2024/02/22 07:52:29;;;;;;;0.50;0.50;;;;;;;4.96;100.00;98189.47;5050356;28;20020;-69
2024/02/22 07:54:54;;;;;;;0.40;0.40;;;;;;;4.96;100.00;98194.59;5068271;28;20040;-69
2024/02/22 07:57:20;;;;;;;1.15;1.15;;;;;;;5.13;100.00;98189.97;5068173;28;20020;-69
2024/02/22 07:59:45;;;;;;;0.50;0.50;;;;;;;4.96;100.00;98186.88;5068024;28;20027;-67
2024/02/22 08:02:11;;;;;;;0.50;0.50;;;;;;;5.06;100.00;98186.69;5050198;28;20021;-68
2024/02/22 08:04:36;;;;;;;0.50;0.50;;;;;;;5.34;100.00;98173.19;5049139;28;20074;-68
2024/02/22 08:07:03;;;;;;;0.50;0.50;;;;;;;5.20;100.00;98182.09;5068013;28;20408;-68
2024/02/22 08:09:28;;;;;;;0.50;0.50;;;;;;;5.20;100.00;98191.50;5067849;28;20400;-68
2024/02/22 08:11:53;;;;;;;0.50;0.50;;;;;;;5.10;100.00;98164.31;5068073;28;20494;-69
2024/02/22 08:14:19;;;;;;;0.40;0.40;;;;;;;5.31;100.00;98168.13;5068052;28;20304;-69
2024/02/22 08:16:44;;;;;;;1.45;1.35;;;;;;;5.22;100.00;98171.75;5067641;28;20048;-68
2024/02/22 08:19:10;;;;;;;0.50;0.50;;;;;;;5.00;100.00;98153.38;5067968;28;20028;-67
2024/02/22 08:21:35;;;;;;;0.50;0.50;;;;;;;5.14;100.00;98168.50;5067636;28;20024;-67
2024/02/22 08:24:00;;;;;;;0.50;0.50;;;;;;;5.20;100.00;98160.66;5078468;23;20084;-64
2024/02/22 08:26:26;;;;;;;0.50;0.50;;;;;;;5.05;100.00;98156.69;5060618;23;20128;-64
2024/02/22 08:28:51;;;;;;;0.55;0.55;;;;;;;5.29;100.00;98133.84;5069309;23;20033;-69
2024/02/22 08:31:17;;;;;;;0.50;0.50;;;;;;;5.35;100.00;98159.47;5049643;28;20032;-68
2024/02/22 08:33:42;;;;;;;0.50;0.50;;;;;;;5.20;100.00;98156.34;5067277;28;20029;-68
2024/02/22 08:36:08;;;;;;;0.50;0.50;;;;;;;5.18;100.00;98155.53;5073792;23;20056;-63
2024/02/22 08:38:34;;;;;;;0.40;0.40;;;;;;;5.21;100.00;98150.31;5067284;28;20069;-64
2024/02/22 08:41:00;;;;;;;0.50;0.50;;;;;;;5.23;100.00;98150.28;5049452;28;20055;-64
2024/02/22 08:43:25;;;;;;;0.70;0.70;;;;;;;5.21;100.00;98132.31;5067706;28;20025;-64
2024/02/22 08:45:51;;;;;;;0.50;0.50;;;;;;;5.32;100.00;98138.91;5072647;23;20049;-66
2024/02/22 08:48:17;;;;;;;0.40;0.40;;;;;;;5.24;100.00;98141.69;5067043;28;20128;-67
2024/02/22 08:50:43;;;;;;;0.50;0.50;;;;;;;5.29;100.00;98142.41;5048367;28;20510;-67
2024/02/22 08:53:08;;;;;;;0.47;0.47;;;;;;;5.29;100.00;98149.28;5067195;28;20347;-68
2024/02/22 08:55:34;;;;;;;1.73;1.63;;;;;;;5.23;100.00;98134.84;5049221;28;20092;-68
2024/02/22 08:57:59;;;;;;;0.40;0.40;;;;;;;5.30;100.00;98138.97;5067054;28;20165;-68
2024/02/22 09:00:25;;;;;;;0.40;0.40;;;;;;;5.31;100.00;98138.09;5066886;28;20047;-67
2024/02/22 09:02:53;;;;;;;0.40;0.40;;;;;;;5.29;100.00;98150.13;5066778;28;20017;-67
2024/02/22 09:05:19;;;;;;;0.50;0.50;;;;;;;5.43;100.00;98141.25;5066876;28;20025;-67
2024/02/22 09:07:45;;;;;;;0.40;0.40;;;;;;;5.31;100.00;98137.25;5066651;28;20095;-67
2024/02/22 09:10:10;;;;;;;0.50;0.50;;;;;;;5.33;100.00;98138.06;5066636;28;20043;-66
2024/02/22 09:12:40;;;;;;;0.40;0.40;;;;;;;5.48;100.00;98136.00;5066577;28;20036;-67
2024/02/22 09:15:07;;;;;;;1.13;0.75;;;;;;;5.42;100.00;98140.41;5067043;28;20412;-67
2024/02/22 09:17:33;;;;;;;2.45;2.25;;;;;;;5.50;100.00;98135.06;5058912;23;20044;-65
2024/02/22 09:19:58;;;;;;;0.40;0.40;;;;;;;5.40;100.00;98155.03;5066732;28;20110;-64
2024/02/22 09:22:23;;;;;;;0.40;0.40;;;;;;;5.42;100.00;98145.56;5066890;28;20013;-64
2024/02/22 09:24:49;;;;;;;0.40;0.40;;;;;;;5.33;100.00;98150.91;5066451;28;20116;-64
2024/02/22 09:27:14;;;;;;;0.50;0.50;;;;;;;5.41;100.00;98143.88;5066743;28;20461;-65
2024/02/22 09:29:40;;;;;;;0.50;0.50;;;;;;;5.30;100.00;98151.81;5066411;28;20047;-64
2024/02/22 09:32:06;;;;;;;0.50;0.50;;;;;;;5.37;100.00;98144.00;5066634;28;20426;-64
2024/02/22 09:34:33;;;;;;;0.47;0.47;;;;;;;5.40;100.00;98142.16;5068977;23;20140;-64
2024/02/22 09:37:00;;;;;;;0.50;0.50;;;;;;;5.32;100.00;98156.94;5051617;23;20544;-67
2024/02/22 09:39:26;;;;;;;0.50;0.50;;;;;;;5.35;100.00;98162.03;5046122;28;20124;-67
2024/02/22 09:41:51;;;;;;;0.40;0.40;;;;;;;5.38;100.00;98159.38;5045947;28;20030;-67
2024/02/22 09:44:18;;;;;;;0.43;0.43;;;;;;;5.35;100.00;98156.88;5064075;23;20438;-65
2024/02/22 09:46:48;;;;;;;0.40;0.40;;;;;;;5.32;100.00;98144.06;5044017;28;20026;-66
2024/02/22 09:49:14;;;;;;;0.40;0.40;;;;;;;5.35;100.00;98151.75;5050831;23;20140;-64
2024/02/22 09:51:39;;;;;;;0.40;0.40;;;;;;;5.39;100.00;98148.19;5045572;28;20068;-65
2024/02/22 09:54:05;;;;;;;0.40;0.40;;;;;;;5.35;100.00;98158.59;5044800;28;20025;-64
2024/02/22 09:56:32;;;;;;;0.40;0.40;;;;;;;5.43;100.00;98152.38;5045881;28;20025;-65
2024/02/22 09:58:57;;;;;;;0.50;0.50;;;;;;;5.48;100.00;98161.75;5044735;28;20071;-64
2024/02/22 10:01:23;;;;;;;2.10;2.00;;;;;;;5.43;100.00;98156.69;5045979;28;20021;-65
2024/02/22 10:03:49;;;;;;;0.40;0.40;;;;;;;5.38;100.00;98143.09;5045123;28;20059;-64
2024/02/22 10:06:18;;;;;;;0.90;0.90;;;;;;;5.51;100.00;98152.19;5063933;23;20049;-67
2024/02/22 10:08:46;;;;;;;1.15;1.08;;;;;;;5.45;100.00;98145.47;5047801;28;20017;-67
2024/02/22 10:11:11;;;;;;;0.50;0.50;;;;;;;5.39;100.00;98132.75;5065304;28;20048;-67
2024/02/22 10:13:37;;;;;;;0.47;0.47;;;;;;;5.48;100.00;98133.44;5065867;28;20465;-67
2024/02/22 10:18:32;;;;;;;0.40;0.40;;;;;;;5.42;100.00;98139.56;5057341;23;20053;-67
2024/02/22 10:21:48;;;;;;;0.40;0.40;;;;;;;5.58;100.00;98127.16;5050745;23;20022;-65
2024/02/22 10:24:13;;;;;;;1.38;1.35;;;;;;;5.43;100.00;98116.34;5065215;23;20053;-67
2024/02/22 10:26:38;;;;;;;0.40;0.40;;;;;;;5.46;100.00;98116.28;5067602;23;20054;-64
2024/02/22 10:29:07;;;;;;;0.98;0.93;;;;;;;5.50;100.00;98114.47;5077404;23;20057;-67
2024/02/22 10:31:44;;;;;;;0.50;0.50;;;;;;;5.39;100.00;98109.59;5065303;28;20053;-67
2024/02/22 10:34:11;;;;;;;0.40;0.40;;;;;;;5.46;100.00;98111.13;5065592;28;20039;-68
2024/02/22 10:36:37;;;;;;;0.40;0.40;;;;;;;5.45;100.00;98109.44;5065030;28;20109;-66
2024/02/22 10:39:03;;;;;;;0.70;0.70;;;;;;;5.49;100.00;98097.38;5065269;28;20025;-66
2024/02/22 10:41:29;;;;;;;0.40;0.40;;;;;;;5.46;100.00;98105.97;5070051;23;20090;-64
2024/02/22 10:43:55;;;;;;;0.50;0.50;;;;;;;5.65;100.00;98104.69;5047572;28;20100;-65
2024/02/22 10:46:27;;;;;;;0.50;0.50;;;;;;;5.48;100.00;98097.41;5065270;28;20059;-65
2024/02/22 10:48:52;;;;;;;0.50;0.50;;;;;;;5.48;100.00;98092.25;5047484;28;20021;-64
2024/02/22 10:51:22;;;;;;;0.50;0.50;;;;;;;5.56;100.00;98080.88;5047313;28;20025;-65
2024/02/22 10:53:56;;;;;;;0.60;0.60;;;;;;;5.51;100.00;98081.88;5052645;23;20045;-67
2024/02/22 10:56:24;;;;;;;0.50;0.50;;;;;;;5.49;100.00;98078.50;5065195;28;20025;-66
2024/02/22 10:59:12;;;;;;;0.50;0.50;;;;;;;5.58;100.00;98081.69;5065229;28;20079;-67
2024/02/22 11:01:39;;;;;;;0.50;0.50;;;;;;;5.56;100.00;98080.88;5065035;28;20078;-67
2024/02/22 11:04:05;;;;;;;0.95;0.95;;;;;;;5.49;100.00;98081.06;5065115;28;20028;-66
2024/02/22 11:06:41;;;;;;;0.50;0.50;;;;;;;5.61;100.00;98078.16;5064908;28;20024;-67
2024/02/22 11:09:26;;;;;;;0.50;0.50;;;;;;;5.53;100.00;98069.78;5046975;28;20120;-67
2024/02/22 11:11:52;;;;;;;0.40;0.40;;;;;;;5.53;100.00;98069.78;5064979;28;20024;-67
2024/02/22 11:14:35;;;;;;;0.60;0.60;;;;;;;5.64;100.00;98065.22;5065850;28;20048;-66
2024/02/22 11:17:05;;;;;;;0.47;0.47;;;;;;;5.61;100.00;98065.31;5069245;28;20025;-66
2024/02/22 11:19:30;;;;;;;0.50;0.50;;;;;;;5.55;100.00;98068.88;5069126;28;20029;-66
2024/02/22 11:21:56;;;;;;;0.40;0.40;;;;;;;5.65;100.00;98055.78;5068436;28;20040;-66
2024/02/22 11:24:23;;;;;;;0.50;0.50;;;;;;;5.73;100.00;98040.13;5069051;28;20025;-66
2024/02/22 11:26:50;;;;;;;0.40;0.40;;;;;;;5.58;100.00;98037.06;5050709;28;20092;-66
2024/02/22 11:29:29;;;;;;;0.40;0.40;;;;;;;5.57;100.00;98032.81;5050520;28;20021;-66
2024/02/22 11:31:58;;;;;;;0.50;0.50;;;;;;;5.56;100.00;98034.53;5068866;28;20021;-66
2024/02/22 11:34:25;;;;;;;0.50;0.50;;;;;;;5.69;100.00;98027.34;5074268;23;20048;-64
2024/02/22 11:36:50;;;;;;;0.57;0.57;;;;;;;5.66;100.00;98026.56;5068537;28;20421;-65
2024/02/22 11:39:18;;;;;;;0.40;0.40;;;;;;;5.65;100.00;98028.31;5069005;28;20037;-65
2024/02/22 11:41:48;;;;;;;0.47;0.47;;;;;;;5.76;100.00;98020.28;5068548;28;20041;-65